sensor_id;sensor_type;location;lat;lon;timestamp;P1;durP1;ratioP1;P2;durP2;ratioP2
69057;SDS011;56128;37.534;-122.308;2022-09-17T00:00:42;10.10;;;3.85;;
69057;SDS011;56128;37.534;-122.308;2022-09-17T00:03:09;8.40;;;3.85;;
69057;SDS011;56128;37.534;-122.308;2022-09-17T00:05:36;11.02;;;3.90;;
69057;SDS011;56128;37.534;-122.308;2022-09-17T00:08:03;10.88;;;3.90;;
69057;SDS011;56128;37.534;-122.308;2022-09-17T00:10:31;11.20;;;3.88;;
69057;SDS011;56128;37.534;-122.308;2022-09-17T00:13:02;10.27;;;4.20;;
69057;SDS011;56128;37.534;-122.308;2022-09-17T00:15:29;11.18;;;4.22;;
69057;SDS011;56128;37.534;-122.308;2022-09-17T00:17:55;9.07;;;3.80;;
69057;SDS011;56128;37.534;-122.308;2022-09-17T00:20:25;11.63;;;4.35;;
69057;SDS011;56128;37.534;-122.308;2022-09-17T00:22:52;12.98;;;4.22;;
69057;SDS011;56128;37.534;-122.308;2022-09-17T00:25:18;11.38;;;4.20;;
69057;SDS011;56128;37.534;-122.308;2022-09-17T00:27:45;13.30;;;4.18;;
69057;SDS011;56128;37.534;-122.308;2022-09-17T00:30:11;13.98;;;4.35;;
69057;SDS011;56128;37.534;-122.308;2022-09-17T00:32:38;12.57;;;4.30;;
69057;SDS011;56128;37.534;-122.308;2022-09-17T00:35:04;14.30;;;4.40;;
69057;SDS011;56128;37.534;-122.308;2022-09-17T00:37:31;9.70;;;4.45;;
69057;SDS011;56128;37.534;-122.308;2022-09-17T00:39:57;11.23;;;3.85;;
69057;SDS011;56128;37.534;-122.308;2022-09-17T00:42:24;11.00;;;4.13;;
69057;SDS011;56128;37.534;-122.308;2022-09-17T00:44:51;10.95;;;4.43;;
69057;SDS011;56128;37.534;-122.308;2022-09-17T00:47:35;11.20;;;4.38;;
69057;SDS011;56128;37.534;-122.308;2022-09-17T00:52:50;13.35;;;4.22;;
69057;SDS011;56128;37.534;-122.308;2022-09-17T00:58:17;14.70;;;4.68;;
69057;SDS011;56128;37.534;-122.308;2022-09-17T01:00:46;12.45;;;4.90;;
69057;SDS011;56128;37.534;-122.308;2022-09-17T01:03:13;15.88;;;4.22;;
69057;SDS011;56128;37.534;-122.308;2022-09-17T01:05:49;12.95;;;4.28;;
69057;SDS011;56128;37.534;-122.308;2022-09-17T01:11:23;13.43;;;4.50;;
69057;SDS011;56128;37.534;-122.308;2022-09-17T01:22:06;10.90;;;3.50;;
69057;SDS011;56128;37.534;-122.308;2022-09-17T01:45:17;9.05;;;3.15;;
69057;SDS011;56128;37.534;-122.308;2022-09-17T01:47:58;13.20;;;4.20;;
69057;SDS011;56128;37.534;-122.308;2022-09-17T01:50:52;10.98;;;3.70;;
69057;SDS011;56128;37.534;-122.308;2022-09-17T01:53:23;11.85;;;3.80;;
69057;SDS011;56128;37.534;-122.308;2022-09-17T01:55:55;11.95;;;3.75;;
69057;SDS011;56128;37.534;-122.308;2022-09-17T01:58:28;10.30;;;3.65;;
69057;SDS011;56128;37.534;-122.308;2022-09-17T02:01:03;13.60;;;3.95;;
69057;SDS011;56128;37.534;-122.308;2022-09-17T02:03:47;16.45;;;3.97;;
69057;SDS011;56128;37.534;-122.308;2022-09-17T02:06:30;12.18;;;3.72;;
69057;SDS011;56128;37.534;-122.308;2022-09-17T02:09:03;14.18;;;4.40;;
69057;SDS011;56128;37.534;-122.308;2022-09-17T02:11:36;17.25;;;3.83;;
69057;SDS011;56128;37.534;-122.308;2022-09-17T02:14:07;14.48;;;4.20;;
69057;SDS011;56128;37.534;-122.308;2022-09-17T02:16:40;15.70;;;3.90;;
69057;SDS011;56128;37.534;-122.308;2022-09-17T02:27:36;10.45;;;3.78;;
69057;SDS011;56128;37.534;-122.308;2022-09-17T02:30:04;16.38;;;4.18;;
69057;SDS011;56128;37.534;-122.308;2022-09-17T02:32:31;18.17;;;4.50;;
69057;SDS011;56128;37.534;-122.308;2022-09-17T02:34:58;15.05;;;4.43;;
69057;SDS011;56128;37.534;-122.308;2022-09-17T02:37:24;17.60;;;4.03;;
69057;SDS011;56128;37.534;-122.308;2022-09-17T02:39:52;15.05;;;4.85;;
69057;SDS011;56128;37.534;-122.308;2022-09-17T02:47:58;12.57;;;3.63;;
69057;SDS011;56128;37.534;-122.308;2022-09-17T02:50:52;17.73;;;4.18;;
69057;SDS011;56128;37.534;-122.308;2022-09-17T02:56:09;16.58;;;4.15;;
69057;SDS011;56128;37.534;-122.308;2022-09-17T02:58:46;18.65;;;4.05;;
69057;SDS011;56128;37.534;-122.308;2022-09-17T03:01:38;20.20;;;4.07;;
69057;SDS011;56128;37.534;-122.308;2022-09-17T03:04:14;15.02;;;3.90;;
69057;SDS011;56128;37.534;-122.308;2022-09-17T03:06:46;16.40;;;3.70;;
69057;SDS011;56128;37.534;-122.308;2022-09-17T03:09:13;18.50;;;4.45;;
69057;SDS011;56128;37.534;-122.308;2022-09-17T03:11:40;14.63;;;4.05;;
69057;SDS011;56128;37.534;-122.308;2022-09-17T03:14:06;14.48;;;4.20;;
69057;SDS011;56128;37.534;-122.308;2022-09-17T03:16:33;14.40;;;3.72;;
69057;SDS011;56128;37.534;-122.308;2022-09-17T03:18:59;15.57;;;4.10;;
69057;SDS011;56128;37.534;-122.308;2022-09-17T03:21:25;17.83;;;3.50;;
69057;SDS011;56128;37.534;-122.308;2022-09-17T03:23:51;11.80;;;3.65;;
69057;SDS011;56128;37.534;-122.308;2022-09-17T03:26:17;17.35;;;3.85;;
69057;SDS011;56128;37.534;-122.308;2022-09-17T03:28:43;17.05;;;4.22;;
69057;SDS011;56128;37.534;-122.308;2022-09-17T03:31:10;21.70;;;3.78;;
69057;SDS011;56128;37.534;-122.308;2022-09-17T03:33:36;19.30;;;4.15;;
69057;SDS011;56128;37.534;-122.308;2022-09-17T03:36:02;13.75;;;3.92;;
69057;SDS011;56128;37.534;-122.308;2022-09-17T03:38:28;21.38;;;4.00;;
69057;SDS011;56128;37.534;-122.308;2022-09-17T03:41:01;15.77;;;3.67;;
69057;SDS011;56128;37.534;-122.308;2022-09-17T03:43:29;22.38;;;5.03;;
69057;SDS011;56128;37.534;-122.308;2022-09-17T03:45:55;16.30;;;3.75;;
69057;SDS011;56128;37.534;-122.308;2022-09-17T03:48:21;15.35;;;3.83;;
69057;SDS011;56128;37.534;-122.308;2022-09-17T03:50:47;15.35;;;4.20;;
69057;SDS011;56128;37.534;-122.308;2022-09-17T03:53:14;18.48;;;3.72;;
69057;SDS011;56128;37.534;-122.308;2022-09-17T03:55:40;20.85;;;5.03;;
69057;SDS011;56128;37.534;-122.308;2022-09-17T03:58:06;16.15;;;3.35;;
69057;SDS011;56128;37.534;-122.308;2022-09-17T04:00:33;19.48;;;4.00;;
69057;SDS011;56128;37.534;-122.308;2022-09-17T04:03:05;16.13;;;3.67;;
69057;SDS011;56128;37.534;-122.308;2022-09-17T04:05:31;15.27;;;4.15;;
69057;SDS011;56128;37.534;-122.308;2022-09-17T04:07:57;20.15;;;3.90;;
69057;SDS011;56128;37.534;-122.308;2022-09-17T04:10:24;15.93;;;3.92;;
69057;SDS011;56128;37.534;-122.308;2022-09-17T04:12:50;15.50;;;3.17;;
69057;SDS011;56128;37.534;-122.308;2022-09-17T04:15:16;18.27;;;3.88;;
69057;SDS011;56128;37.534;-122.308;2022-09-17T04:17:42;14.93;;;4.00;;
69057;SDS011;56128;37.534;-122.308;2022-09-17T04:20:09;20.52;;;4.20;;
69057;SDS011;56128;37.534;-122.308;2022-09-17T04:22:35;20.77;;;3.83;;
69057;SDS011;56128;37.534;-122.308;2022-09-17T04:25:01;20.13;;;4.18;;
69057;SDS011;56128;37.534;-122.308;2022-09-17T04:27:27;22.15;;;4.70;;
69057;SDS011;56128;37.534;-122.308;2022-09-17T04:29:53;16.70;;;4.05;;
69057;SDS011;56128;37.534;-122.308;2022-09-17T04:32:19;20.80;;;4.40;;
69057;SDS011;56128;37.534;-122.308;2022-09-17T04:34:45;22.42;;;4.82;;
69057;SDS011;56128;37.534;-122.308;2022-09-17T04:37:11;15.07;;;3.60;;
69057;SDS011;56128;37.534;-122.308;2022-09-17T04:39:38;16.38;;;3.72;;
69057;SDS011;56128;37.534;-122.308;2022-09-17T04:42:04;21.05;;;4.10;;
69057;SDS011;56128;37.534;-122.308;2022-09-17T04:44:30;16.02;;;3.42;;
69057;SDS011;56128;37.534;-122.308;2022-09-17T04:46:56;18.67;;;3.58;;
69057;SDS011;56128;37.534;-122.308;2022-09-17T04:49:22;20.05;;;5.00;;
69057;SDS011;56128;37.534;-122.308;2022-09-17T04:51:49;21.02;;;4.35;;
69057;SDS011;56128;37.534;-122.308;2022-09-17T04:54:15;16.40;;;3.80;;
69057;SDS011;56128;37.534;-122.308;2022-09-17T04:56:41;18.17;;;3.33;;
69057;SDS011;56128;37.534;-122.308;2022-09-17T04:59:07;16.10;;;4.10;;
69057;SDS011;56128;37.534;-122.308;2022-09-17T05:01:33;21.35;;;4.60;;
69057;SDS011;56128;37.534;-122.308;2022-09-17T05:03:59;19.88;;;4.25;;
69057;SDS011;56128;37.534;-122.308;2022-09-17T05:06:26;25.05;;;4.07;;
69057;SDS011;56128;37.534;-122.308;2022-09-17T05:08:52;18.85;;;3.92;;
69057;SDS011;56128;37.534;-122.308;2022-09-17T05:11:18;17.02;;;4.32;;
69057;SDS011;56128;37.534;-122.308;2022-09-17T05:13:44;20.75;;;4.00;;
69057;SDS011;56128;37.534;-122.308;2022-09-17T05:16:10;19.05;;;4.45;;
69057;SDS011;56128;37.534;-122.308;2022-09-17T05:18:36;26.05;;;4.05;;
69057;SDS011;56128;37.534;-122.308;2022-09-17T05:21:02;17.38;;;4.05;;
69057;SDS011;56128;37.534;-122.308;2022-09-17T05:23:28;19.20;;;3.90;;
69057;SDS011;56128;37.534;-122.308;2022-09-17T05:25:58;23.55;;;4.70;;
69057;SDS011;56128;37.534;-122.308;2022-09-17T05:28:25;21.77;;;4.60;;
69057;SDS011;56128;37.534;-122.308;2022-09-17T05:30:52;20.80;;;4.53;;
69057;SDS011;56128;37.534;-122.308;2022-09-17T05:33:18;18.15;;;4.32;;
69057;SDS011;56128;37.534;-122.308;2022-09-17T05:35:44;19.55;;;4.07;;
69057;SDS011;56128;37.534;-122.308;2022-09-17T05:38:11;22.63;;;3.95;;
69057;SDS011;56128;37.534;-122.308;2022-09-17T05:40:37;27.10;;;4.70;;
69057;SDS011;56128;37.534;-122.308;2022-09-17T05:43:04;19.65;;;4.15;;
69057;SDS011;56128;37.534;-122.308;2022-09-17T05:45:32;18.05;;;3.97;;
69057;SDS011;56128;37.534;-122.308;2022-09-17T05:47:59;16.75;;;3.72;;
69057;SDS011;56128;37.534;-122.308;2022-09-17T05:50:27;17.80;;;3.92;;
69057;SDS011;56128;37.534;-122.308;2022-09-17T05:52:54;18.42;;;4.38;;
69057;SDS011;56128;37.534;-122.308;2022-09-17T05:55:21;20.55;;;4.15;;
69057;SDS011;56128;37.534;-122.308;2022-09-17T05:57:48;19.77;;;4.03;;
69057;SDS011;56128;37.534;-122.308;2022-09-17T06:00:15;20.52;;;3.78;;
69057;SDS011;56128;37.534;-122.308;2022-09-17T06:02:42;19.70;;;4.18;;
69057;SDS011;56128;37.534;-122.308;2022-09-17T06:05:08;22.30;;;4.28;;
69057;SDS011;56128;37.534;-122.308;2022-09-17T06:07:37;19.42;;;4.20;;
69057;SDS011;56128;37.534;-122.308;2022-09-17T06:10:04;22.90;;;5.30;;
69057;SDS011;56128;37.534;-122.308;2022-09-17T06:12:32;19.77;;;4.28;;
69057;SDS011;56128;37.534;-122.308;2022-09-17T06:15:00;26.52;;;4.85;;
69057;SDS011;56128;37.534;-122.308;2022-09-17T06:17:26;19.05;;;4.40;;
69057;SDS011;56128;37.534;-122.308;2022-09-17T06:19:52;20.55;;;5.13;;
69057;SDS011;56128;37.534;-122.308;2022-09-17T06:22:18;23.05;;;4.82;;
69057;SDS011;56128;37.534;-122.308;2022-09-17T06:24:45;23.33;;;4.43;;
69057;SDS011;56128;37.534;-122.308;2022-09-17T06:27:11;20.98;;;4.10;;
69057;SDS011;56128;37.534;-122.308;2022-09-17T06:29:37;20.60;;;5.25;;
69057;SDS011;56128;37.534;-122.308;2022-09-17T06:32:03;23.00;;;4.95;;
69057;SDS011;56128;37.534;-122.308;2022-09-17T06:34:33;23.40;;;4.78;;
69057;SDS011;56128;37.534;-122.308;2022-09-17T06:36:59;18.27;;;4.40;;
69057;SDS011;56128;37.534;-122.308;2022-09-17T06:39:25;22.35;;;5.07;;
69057;SDS011;56128;37.534;-122.308;2022-09-17T06:41:51;17.75;;;4.90;;
69057;SDS011;56128;37.534;-122.308;2022-09-17T06:44:17;25.08;;;5.82;;
69057;SDS011;56128;37.534;-122.308;2022-09-17T06:46:44;23.23;;;4.72;;
69057;SDS011;56128;37.534;-122.308;2022-09-17T06:49:10;22.08;;;4.55;;
69057;SDS011;56128;37.534;-122.308;2022-09-17T06:51:36;21.63;;;5.00;;
69057;SDS011;56128;37.534;-122.308;2022-09-17T06:54:02;18.58;;;4.63;;
69057;SDS011;56128;37.534;-122.308;2022-09-17T06:56:29;18.45;;;4.35;;
69057;SDS011;56128;37.534;-122.308;2022-09-17T06:58:57;18.77;;;4.70;;
69057;SDS011;56128;37.534;-122.308;2022-09-17T07:01:23;22.33;;;4.57;;
69057;SDS011;56128;37.534;-122.308;2022-09-17T07:03:50;19.40;;;4.70;;
69057;SDS011;56128;37.534;-122.308;2022-09-17T07:06:16;20.65;;;4.80;;
69057;SDS011;56128;37.534;-122.308;2022-09-17T07:08:42;20.25;;;4.30;;
69057;SDS011;56128;37.534;-122.308;2022-09-17T07:11:08;22.90;;;4.88;;
69057;SDS011;56128;37.534;-122.308;2022-09-17T07:13:34;19.33;;;4.43;;
69057;SDS011;56128;37.534;-122.308;2022-09-17T07:16:01;24.83;;;4.65;;
69057;SDS011;56128;37.534;-122.308;2022-09-17T07:18:29;28.15;;;5.82;;
69057;SDS011;56128;37.534;-122.308;2022-09-17T07:20:56;29.60;;;5.38;;
69057;SDS011;56128;37.534;-122.308;2022-09-17T07:23:24;24.35;;;5.55;;
69057;SDS011;56128;37.534;-122.308;2022-09-17T07:26:13;24.35;;;4.93;;
69057;SDS011;56128;37.534;-122.308;2022-09-17T07:28:40;25.85;;;5.45;;
69057;SDS011;56128;37.534;-122.308;2022-09-17T07:31:08;26.83;;;4.47;;
69057;SDS011;56128;37.534;-122.308;2022-09-17T07:33:35;23.02;;;5.40;;
69057;SDS011;56128;37.534;-122.308;2022-09-17T07:36:05;20.08;;;5.88;;
69057;SDS011;56128;37.534;-122.308;2022-09-17T07:38:33;23.23;;;5.03;;
69057;SDS011;56128;37.534;-122.308;2022-09-17T07:41:00;20.98;;;4.85;;
69057;SDS011;56128;37.534;-122.308;2022-09-17T07:43:36;26.25;;;5.22;;
69057;SDS011;56128;37.534;-122.308;2022-09-17T07:46:03;23.50;;;5.40;;
69057;SDS011;56128;37.534;-122.308;2022-09-17T07:48:30;22.52;;;5.55;;
69057;SDS011;56128;37.534;-122.308;2022-09-17T07:50:56;28.13;;;5.70;;
69057;SDS011;56128;37.534;-122.308;2022-09-17T07:53:23;22.27;;;5.25;;
69057;SDS011;56128;37.534;-122.308;2022-09-17T07:56:07;26.27;;;5.00;;
69057;SDS011;56128;37.534;-122.308;2022-09-17T07:58:34;22.42;;;4.65;;
69057;SDS011;56128;37.534;-122.308;2022-09-17T08:03:32;20.80;;;5.47;;
69057;SDS011;56128;37.534;-122.308;2022-09-17T08:06:03;24.50;;;6.00;;
69057;SDS011;56128;37.534;-122.308;2022-09-17T08:08:34;25.48;;;5.43;;
69057;SDS011;56128;37.534;-122.308;2022-09-17T08:11:05;33.40;;;6.95;;
69057;SDS011;56128;37.534;-122.308;2022-09-17T08:13:35;28.40;;;5.93;;
69057;SDS011;56128;37.534;-122.308;2022-09-17T08:16:03;27.60;;;5.85;;
69057;SDS011;56128;37.534;-122.308;2022-09-17T08:18:31;26.88;;;6.38;;
69057;SDS011;56128;37.534;-122.308;2022-09-17T08:20:58;22.45;;;5.28;;
69057;SDS011;56128;37.534;-122.308;2022-09-17T08:23:27;26.38;;;5.80;;
69057;SDS011;56128;37.534;-122.308;2022-09-17T08:25:55;26.05;;;5.45;;
69057;SDS011;56128;37.534;-122.308;2022-09-17T08:28:24;29.27;;;5.65;;
69057;SDS011;56128;37.534;-122.308;2022-09-17T08:30:52;27.90;;;5.45;;
69057;SDS011;56128;37.534;-122.308;2022-09-17T08:33:20;30.48;;;5.93;;
69057;SDS011;56128;37.534;-122.308;2022-09-17T08:35:52;20.73;;;5.05;;
69057;SDS011;56128;37.534;-122.308;2022-09-17T08:38:19;22.75;;;5.28;;
69057;SDS011;56128;37.534;-122.308;2022-09-17T08:40:51;23.58;;;5.43;;
69057;SDS011;56128;37.534;-122.308;2022-09-17T08:46:25;24.77;;;5.97;;
69057;SDS011;56128;37.534;-122.308;2022-09-17T08:52:00;28.33;;;5.30;;
69057;SDS011;56128;37.534;-122.308;2022-09-17T09:00:19;20.08;;;5.03;;
69057;SDS011;56128;37.534;-122.308;2022-09-17T09:05:21;26.40;;;5.47;;
69057;SDS011;56128;37.534;-122.308;2022-09-17T09:08:12;21.60;;;5.07;;
69057;SDS011;56128;37.534;-122.308;2022-09-17T09:10:52;24.08;;;5.07;;
69057;SDS011;56128;37.534;-122.308;2022-09-17T09:13:26;17.52;;;4.88;;
69057;SDS011;56128;37.534;-122.308;2022-09-17T09:16:00;20.73;;;5.60;;
69057;SDS011;56128;37.534;-122.308;2022-09-17T09:18:32;22.92;;;5.13;;
69057;SDS011;56128;37.534;-122.308;2022-09-17T09:21:09;25.33;;;5.38;;
69057;SDS011;56128;37.534;-122.308;2022-09-17T09:29:24;20.30;;;5.25;;
69057;SDS011;56128;37.534;-122.308;2022-09-17T09:31:58;22.90;;;5.28;;
69057;SDS011;56128;37.534;-122.308;2022-09-17T09:34:26;28.27;;;6.13;;
69057;SDS011;56128;37.534;-122.308;2022-09-17T09:37:00;25.10;;;5.90;;
69057;SDS011;56128;37.534;-122.308;2022-09-17T09:39:43;21.00;;;5.93;;
69057;SDS011;56128;37.534;-122.308;2022-09-17T09:42:31;24.45;;;5.55;;
69057;SDS011;56128;37.534;-122.308;2022-09-17T09:45:26;26.75;;;6.00;;
69057;SDS011;56128;37.534;-122.308;2022-09-17T09:48:11;25.83;;;6.22;;
69057;SDS011;56128;37.534;-122.308;2022-09-17T09:53:43;28.30;;;5.25;;
69057;SDS011;56128;37.534;-122.308;2022-09-17T09:56:34;20.42;;;5.35;;
69057;SDS011;56128;37.534;-122.308;2022-09-17T09:59:09;26.98;;;5.18;;
69057;SDS011;56128;37.534;-122.308;2022-09-17T10:01:41;20.05;;;5.13;;
69057;SDS011;56128;37.534;-122.308;2022-09-17T10:04:19;24.10;;;5.53;;
69057;SDS011;56128;37.534;-122.308;2022-09-17T10:07:00;21.77;;;5.50;;
69057;SDS011;56128;37.534;-122.308;2022-09-17T10:09:28;23.33;;;4.88;;
69057;SDS011;56128;37.534;-122.308;2022-09-17T10:14:28;23.85;;;6.43;;
69057;SDS011;56128;37.534;-122.308;2022-09-17T10:17:09;24.15;;;5.93;;
69057;SDS011;56128;37.534;-122.308;2022-09-17T10:19:37;20.17;;;5.78;;
69057;SDS011;56128;37.534;-122.308;2022-09-17T10:22:21;24.60;;;5.82;;
69057;SDS011;56128;37.534;-122.308;2022-09-17T10:24:51;22.98;;;5.13;;
69057;SDS011;56128;37.534;-122.308;2022-09-17T10:27:20;20.30;;;4.72;;
69057;SDS011;56128;37.534;-122.308;2022-09-17T10:29:49;29.85;;;5.65;;
69057;SDS011;56128;37.534;-122.308;2022-09-17T10:32:21;19.75;;;5.78;;
69057;SDS011;56128;37.534;-122.308;2022-09-17T10:42:43;22.42;;;4.80;;
69057;SDS011;56128;37.534;-122.308;2022-09-17T10:45:26;23.73;;;5.32;;
69057;SDS011;56128;37.534;-122.308;2022-09-17T10:50:30;21.98;;;5.47;;
69057;SDS011;56128;37.534;-122.308;2022-09-17T10:53:00;19.33;;;4.35;;
69057;SDS011;56128;37.534;-122.308;2022-09-17T10:58:02;27.90;;;5.45;;
69057;SDS011;56128;37.534;-122.308;2022-09-17T11:00:34;23.30;;;5.47;;
69057;SDS011;56128;37.534;-122.308;2022-09-17T11:17:24;23.35;;;5.10;;
69057;SDS011;56128;37.534;-122.308;2022-09-17T11:25:53;28.42;;;6.28;;
69057;SDS011;56128;37.534;-122.308;2022-09-17T11:31:29;25.58;;;4.50;;
69057;SDS011;56128;37.534;-122.308;2022-09-17T11:34:24;19.67;;;5.55;;
69057;SDS011;56128;37.534;-122.308;2022-09-17T11:45:34;22.63;;;4.47;;
69057;SDS011;56128;37.534;-122.308;2022-09-17T11:48:12;25.50;;;5.85;;
69057;SDS011;56128;37.534;-122.308;2022-09-17T11:50:57;24.58;;;5.25;;
69057;SDS011;56128;37.534;-122.308;2022-09-17T11:56:01;26.80;;;5.72;;
69057;SDS011;56128;37.534;-122.308;2022-09-17T11:58:43;26.40;;;5.15;;
69057;SDS011;56128;37.534;-122.308;2022-09-17T12:01:34;22.35;;;5.13;;
69057;SDS011;56128;37.534;-122.308;2022-09-17T12:04:51;28.98;;;5.53;;
69057;SDS011;56128;37.534;-122.308;2022-09-17T12:07:18;23.75;;;4.75;;
69057;SDS011;56128;37.534;-122.308;2022-09-17T12:10:16;26.70;;;4.53;;
69057;SDS011;56128;37.534;-122.308;2022-09-17T12:13:17;21.10;;;4.78;;
69057;SDS011;56128;37.534;-122.308;2022-09-17T12:22:26;19.13;;;4.50;;
69057;SDS011;56128;37.534;-122.308;2022-09-17T12:24:39;27.15;;;4.97;;
69057;SDS011;56128;37.534;-122.308;2022-09-17T12:27:19;25.77;;;5.10;;
69057;SDS011;56128;37.534;-122.308;2022-09-17T12:32:54;18.23;;;4.13;;
69057;SDS011;56128;37.534;-122.308;2022-09-17T12:35:25;24.30;;;5.03;;
69057;SDS011;56128;37.534;-122.308;2022-09-17T12:40:58;18.48;;;4.32;;
69057;SDS011;56128;37.534;-122.308;2022-09-17T12:43:38;21.55;;;4.20;;
69057;SDS011;56128;37.534;-122.308;2022-09-17T13:00:07;21.88;;;5.00;;
69057;SDS011;56128;37.534;-122.308;2022-09-17T13:16:24;25.13;;;4.72;;
69057;SDS011;56128;37.534;-122.308;2022-09-17T13:19:23;22.80;;;4.75;;
69057;SDS011;56128;37.534;-122.308;2022-09-17T13:21:58;21.75;;;4.63;;
69057;SDS011;56128;37.534;-122.308;2022-09-17T13:24:28;20.05;;;4.20;;
69057;SDS011;56128;37.534;-122.308;2022-09-17T13:26:56;19.63;;;4.15;;
69057;SDS011;56128;37.534;-122.308;2022-09-17T13:37:43;20.23;;;4.25;;
69057;SDS011;56128;37.534;-122.308;2022-09-17T13:40:22;20.55;;;5.38;;
69057;SDS011;56128;37.534;-122.308;2022-09-17T13:42:52;15.65;;;4.28;;
69057;SDS011;56128;37.534;-122.308;2022-09-17T13:45:21;23.83;;;5.15;;
69057;SDS011;56128;37.534;-122.308;2022-09-17T13:47:55;23.70;;;4.60;;
69057;SDS011;56128;37.534;-122.308;2022-09-17T13:50:36;15.27;;;4.47;;
69057;SDS011;56128;37.534;-122.308;2022-09-17T13:58:09;15.80;;;3.95;;
69057;SDS011;56128;37.534;-122.308;2022-09-17T14:00:57;18.42;;;4.55;;
69057;SDS011;56128;37.534;-122.308;2022-09-17T14:13:53;28.48;;;4.38;;
69057;SDS011;56128;37.534;-122.308;2022-09-17T14:16:24;23.90;;;5.00;;
69057;SDS011;56128;37.534;-122.308;2022-09-17T14:22:13;19.35;;;4.30;;
69057;SDS011;56128;37.534;-122.308;2022-09-17T14:30:24;22.10;;;4.93;;
69057;SDS011;56128;37.534;-122.308;2022-09-17T14:38:21;17.83;;;4.90;;
69057;SDS011;56128;37.534;-122.308;2022-09-17T14:43:41;13.43;;;3.72;;
69057;SDS011;56128;37.534;-122.308;2022-09-17T14:46:32;16.60;;;4.18;;
69057;SDS011;56128;37.534;-122.308;2022-09-17T14:51:47;23.52;;;4.18;;
69057;SDS011;56128;37.534;-122.308;2022-09-17T14:54:15;20.10;;;4.45;;
69057;SDS011;56128;37.534;-122.308;2022-09-17T14:56:44;15.98;;;3.67;;
69057;SDS011;56128;37.534;-122.308;2022-09-17T15:02:02;12.98;;;4.00;;
69057;SDS011;56128;37.534;-122.308;2022-09-17T15:04:44;20.13;;;4.28;;
69057;SDS011;56128;37.534;-122.308;2022-09-17T15:07:10;18.10;;;3.50;;
69057;SDS011;56128;37.534;-122.308;2022-09-17T15:09:37;22.33;;;4.35;;
69057;SDS011;56128;37.534;-122.308;2022-09-17T15:12:03;13.05;;;3.80;;
69057;SDS011;56128;37.534;-122.308;2022-09-17T15:14:36;17.00;;;3.92;;
69057;SDS011;56128;37.534;-122.308;2022-09-17T15:17:04;12.52;;;2.90;;
69057;SDS011;56128;37.534;-122.308;2022-09-17T15:19:38;9.85;;;2.95;;
69057;SDS011;56128;37.534;-122.308;2022-09-17T15:22:08;12.63;;;3.25;;
69057;SDS011;56128;37.534;-122.308;2022-09-17T15:27:33;15.38;;;3.03;;
69057;SDS011;56128;37.534;-122.308;2022-09-17T15:30:16;11.90;;;2.88;;
69057;SDS011;56128;37.534;-122.308;2022-09-17T15:32:50;13.32;;;2.75;;
69057;SDS011;56128;37.534;-122.308;2022-09-17T15:35:40;15.57;;;3.60;;
69057;SDS011;56128;37.534;-122.308;2022-09-17T15:38:19;13.90;;;3.45;;
69057;SDS011;56128;37.534;-122.308;2022-09-17T15:40:50;13.63;;;3.55;;
69057;SDS011;56128;37.534;-122.308;2022-09-17T15:43:22;11.32;;;2.80;;
69057;SDS011;56128;37.534;-122.308;2022-09-17T15:45:52;15.85;;;3.95;;
69057;SDS011;56128;37.534;-122.308;2022-09-17T15:50:59;11.70;;;2.90;;
69057;SDS011;56128;37.534;-122.308;2022-09-17T15:53:28;11.25;;;2.90;;
69057;SDS011;56128;37.534;-122.308;2022-09-17T15:56:38;14.13;;;3.38;;
69057;SDS011;56128;37.534;-122.308;2022-09-17T16:08:52;11.65;;;3.53;;
69057;SDS011;56128;37.534;-122.308;2022-09-17T16:11:24;8.52;;;2.80;;
69057;SDS011;56128;37.534;-122.308;2022-09-17T16:13:52;9.32;;;2.75;;
69057;SDS011;56128;37.534;-122.308;2022-09-17T16:16:21;6.53;;;2.42;;
69057;SDS011;56128;37.534;-122.308;2022-09-17T16:18:51;8.70;;;2.70;;
69057;SDS011;56128;37.534;-122.308;2022-09-17T16:21:17;8.98;;;2.70;;
69057;SDS011;56128;37.534;-122.308;2022-09-17T16:23:44;7.72;;;2.22;;
69057;SDS011;56128;37.534;-122.308;2022-09-17T16:26:17;10.32;;;2.45;;
69057;SDS011;56128;37.534;-122.308;2022-09-17T16:28:46;7.40;;;2.45;;
69057;SDS011;56128;37.534;-122.308;2022-09-17T16:31:17;8.15;;;2.70;;
69057;SDS011;56128;37.534;-122.308;2022-09-17T16:33:44;12.20;;;2.80;;
69057;SDS011;56128;37.534;-122.308;2022-09-17T16:36:10;5.72;;;1.95;;
69057;SDS011;56128;37.534;-122.308;2022-09-17T16:38:36;9.00;;;2.22;;
69057;SDS011;56128;37.534;-122.308;2022-09-17T16:41:03;8.05;;;2.25;;
69057;SDS011;56128;37.534;-122.308;2022-09-17T16:43:33;7.60;;;2.63;;
69057;SDS011;56128;37.534;-122.308;2022-09-17T16:46:03;8.57;;;2.40;;
69057;SDS011;56128;37.534;-122.308;2022-09-17T16:48:31;6.07;;;2.10;;
69057;SDS011;56128;37.534;-122.308;2022-09-17T16:50:58;8.98;;;2.10;;
69057;SDS011;56128;37.534;-122.308;2022-09-17T16:53:27;8.10;;;2.22;;
69057;SDS011;56128;37.534;-122.308;2022-09-17T16:55:53;5.80;;;1.92;;
69057;SDS011;56128;37.534;-122.308;2022-09-17T16:58:20;5.75;;;2.00;;
69057;SDS011;56128;37.534;-122.308;2022-09-17T17:00:46;7.18;;;2.10;;
69057;SDS011;56128;37.534;-122.308;2022-09-17T17:03:12;6.57;;;2.20;;
69057;SDS011;56128;37.534;-122.308;2022-09-17T17:05:40;6.68;;;1.95;;
69057;SDS011;56128;37.534;-122.308;2022-09-17T17:08:07;4.07;;;1.83;;
69057;SDS011;56128;37.534;-122.308;2022-09-17T17:10:36;5.47;;;2.10;;
69057;SDS011;56128;37.534;-122.308;2022-09-17T17:13:03;7.18;;;2.20;;
69057;SDS011;56128;37.534;-122.308;2022-09-17T17:15:29;7.43;;;2.10;;
69057;SDS011;56128;37.534;-122.308;2022-09-17T17:17:56;5.70;;;1.85;;
69057;SDS011;56128;37.534;-122.308;2022-09-17T17:20:22;6.78;;;2.10;;
69057;SDS011;56128;37.534;-122.308;2022-09-17T17:22:48;5.35;;;1.73;;
69057;SDS011;56128;37.534;-122.308;2022-09-17T17:25:17;5.30;;;1.98;;
69057;SDS011;56128;37.534;-122.308;2022-09-17T17:27:43;4.45;;;1.70;;
69057;SDS011;56128;37.534;-122.308;2022-09-17T17:30:10;7.43;;;2.15;;
69057;SDS011;56128;37.534;-122.308;2022-09-17T17:32:41;6.53;;;2.28;;
69057;SDS011;56128;37.534;-122.308;2022-09-17T17:35:08;6.55;;;2.05;;
69057;SDS011;56128;37.534;-122.308;2022-09-17T17:37:34;5.97;;;1.80;;
69057;SDS011;56128;37.534;-122.308;2022-09-17T17:40:00;6.45;;;2.08;;
69057;SDS011;56128;37.534;-122.308;2022-09-17T17:42:32;6.13;;;2.25;;
69057;SDS011;56128;37.534;-122.308;2022-09-17T17:45:03;7.53;;;2.00;;
69057;SDS011;56128;37.534;-122.308;2022-09-17T17:47:30;6.53;;;1.70;;
69057;SDS011;56128;37.534;-122.308;2022-09-17T17:49:56;5.15;;;1.73;;
69057;SDS011;56128;37.534;-122.308;2022-09-17T17:52:22;4.97;;;1.88;;
69057;SDS011;56128;37.534;-122.308;2022-09-17T17:54:49;7.07;;;2.03;;
69057;SDS011;56128;37.534;-122.308;2022-09-17T17:57:15;6.03;;;1.92;;
69057;SDS011;56128;37.534;-122.308;2022-09-17T17:59:41;6.25;;;2.03;;
69057;SDS011;56128;37.534;-122.308;2022-09-17T18:02:08;3.67;;;1.48;;
69057;SDS011;56128;37.534;-122.308;2022-09-17T18:04:35;5.72;;;1.60;;
69057;SDS011;56128;37.534;-122.308;2022-09-17T18:07:01;7.05;;;1.90;;
69057;SDS011;56128;37.534;-122.308;2022-09-17T18:09:28;5.57;;;1.80;;